UAL2137 KMSN-KORD
Flight info
| Callsign | UAL2137 |
|---|---|
| Flight time | 0h 34m |
| Altitude | 17000 |
| Route | GARTT CHMPN FYTTE7 |
| Aircraft | B38M/M-SDE1FGHILORVWXY/HB1 |
Departure
| Time | 2026-05-05 21:10 |
|---|---|
| Airport | Dane County Regional Truax Field (KMSN) |
Arrival
| Time | 2026-05-05 21:45 |
|---|---|
| Airport | Chicago O'Hare International Airport (KORD) |
| Time | Latitude | Longitude | Altitude | Speed | Heading |
|---|---|---|---|---|---|
| 2026-05-05 20:43 | 43.13604 | -89.34491 | 869 ft | 0 kts | 270° |
| 2026-05-05 20:59 | 43.13604 | -89.34485 | 869 ft | 2 kts | 270° |
| 2026-05-05 20:59 | 43.13603 | -89.34459 | 869 ft | 3 kts | 274° |
| 2026-05-05 21:00 | 43.13601 | -89.34431 | 869 ft | 3 kts | 282° |
| 2026-05-05 21:00 | 43.13595 | -89.34405 | 869 ft | 3 kts | 300° |
| 2026-05-05 21:00 | 43.13586 | -89.34390 | 868 ft | 3 kts | 333° |
| 2026-05-05 21:00 | 43.13577 | -89.34386 | 868 ft | 0 kts | 1° |
| 2026-05-05 21:06 | 43.13610 | -89.34385 | 868 ft | 10 kts | 1° |
| 2026-05-05 21:06 | 43.13677 | -89.34365 | 867 ft | 11 kts | 50° |
| 2026-05-05 21:06 | 43.13629 | -89.34312 | 867 ft | 16 kts | 181° |
| 2026-05-05 21:07 | 43.13482 | -89.34321 | 867 ft | 24 kts | 186° |
| 2026-05-05 21:07 | 43.13329 | -89.34390 | 868 ft | 16 kts | 194° |
| 2026-05-05 21:07 | 43.13223 | -89.34409 | 873 ft | 14 kts | 186° |
| 2026-05-05 21:07 | 43.13127 | -89.34430 | 875 ft | 14 kts | 188° |
| 2026-05-05 21:08 | 43.13016 | -89.34445 | 874 ft | 18 kts | 185° |
| 2026-05-05 21:08 | 43.12873 | -89.34452 | 876 ft | 18 kts | 182° |
| 2026-05-05 21:08 | 43.12752 | -89.34457 | 875 ft | 15 kts | 181° |
| 2026-05-05 21:08 | 43.12634 | -89.34463 | 871 ft | 19 kts | 182° |
| 2026-05-05 21:09 | 43.12509 | -89.34468 | 869 ft | 17 kts | 179° |
| 2026-05-05 21:09 | 43.12459 | -89.34370 | 869 ft | 11 kts | 91° |
| 2026-05-05 21:09 | 43.12468 | -89.34244 | 868 ft | 17 kts | 63° |
| 2026-05-05 21:09 | 43.12556 | -89.34211 | 871 ft | 11 kts | 3° |
| 2026-05-05 21:10 | 43.12696 | -89.34205 | 873 ft | 48 kts | 2° |
| 2026-05-05 21:10 | 43.13297 | -89.34177 | 872 ft | 122 kts | 2° |
| 2026-05-05 21:10 | 43.14349 | -89.34108 | 937 ft | 174 kts | 359° |
| 2026-05-05 21:10 | 43.15571 | -89.34027 | 1531 ft | 185 kts | 360° |
| 2026-05-05 21:11 | 43.16840 | -89.33846 | 2633 ft | 180 kts | 1° |
| 2026-05-05 21:11 | 43.18152 | -89.33606 | 3314 ft | 203 kts | 1° |
| 2026-05-05 21:11 | 43.19627 | -89.33346 | 4020 ft | 224 kts | 2° |
| 2026-05-05 21:11 | 43.21257 | -89.33086 | 4684 ft | 245 kts | 1° |
| 2026-05-05 21:12 | 43.22990 | -89.32593 | 4720 ft | 265 kts | 20° |
| 2026-05-05 21:12 | 43.24424 | -89.30938 | 5216 ft | 275 kts | 52° |
| 2026-05-05 21:12 | 43.25145 | -89.28492 | 6289 ft | 286 kts | 81° |
| 2026-05-05 21:12 | 43.24883 | -89.25782 | 7271 ft | 291 kts | 115° |
| 2026-05-05 21:13 | 43.23636 | -89.23633 | 8230 ft | 292 kts | 148° |
| 2026-05-05 21:13 | 43.21778 | -89.22670 | 9166 ft | 284 kts | 180° |
| 2026-05-05 21:13 | 43.19796 | -89.22493 | 10092 ft | 290 kts | 178° |
| 2026-05-05 21:13 | 43.17751 | -89.22062 | 10703 ft | 308 kts | 177° |
| 2026-05-05 21:14 | 43.15567 | -89.21543 | 11144 ft | 329 kts | 176° |
| 2026-05-05 21:14 | 43.13261 | -89.20980 | 11681 ft | 343 kts | 177° |
| 2026-05-05 21:14 | 43.10906 | -89.20416 | 12302 ft | 353 kts | 178° |
| 2026-05-05 21:14 | 43.08443 | -89.19836 | 13059 ft | 359 kts | 179° |
| 2026-05-05 21:15 | 43.05973 | -89.19271 | 13887 ft | 362 kts | 180° |
| 2026-05-05 21:15 | 43.03471 | -89.18719 | 14605 ft | 365 kts | 180° |
| 2026-05-05 21:15 | 43.00944 | -89.18167 | 15258 ft | 369 kts | 180° |
| 2026-05-05 21:15 | 42.98403 | -89.17618 | 15982 ft | 371 kts | 180° |
| 2026-05-05 21:16 | 42.95863 | -89.17067 | 16543 ft | 378 kts | 180° |
| 2026-05-05 21:16 | 42.93258 | -89.16504 | 16745 ft | 378 kts | 180° |
| 2026-05-05 21:16 | 42.90666 | -89.15954 | 16910 ft | 379 kts | 180° |
| 2026-05-05 21:16 | 42.88031 | -89.15385 | 16974 ft | 393 kts | 179° |
| 2026-05-05 21:17 | 42.85271 | -89.14761 | 16972 ft | 406 kts | 179° |
| 2026-05-05 21:17 | 42.82484 | -89.14146 | 17039 ft | 404 kts | 179° |
| 2026-05-05 21:17 | 42.80642 | -89.13751 | 16969 ft | 405 kts | 179° |
| 2026-05-05 21:17 | 42.77862 | -89.13161 | 17013 ft | 406 kts | 179° |
| 2026-05-05 21:18 | 42.75090 | -89.12581 | 17068 ft | 403 kts | 180° |
| 2026-05-05 21:18 | 42.72394 | -89.12017 | 17017 ft | 402 kts | 180° |
| 2026-05-05 21:18 | 42.69610 | -89.11438 | 17064 ft | 405 kts | 180° |
| 2026-05-05 21:18 | 42.66839 | -89.10853 | 17043 ft | 404 kts | 180° |
| 2026-05-05 21:19 | 42.64058 | -89.10271 | 17027 ft | 404 kts | 180° |
| 2026-05-05 21:19 | 42.61281 | -89.09691 | 17034 ft | 404 kts | 180° |
| 2026-05-05 21:19 | 42.58496 | -89.09110 | 17025 ft | 406 kts | 179° |
| 2026-05-05 21:19 | 42.55698 | -89.08525 | 17030 ft | 404 kts | 180° |
| 2026-05-05 21:20 | 42.52958 | -89.07956 | 16732 ft | 395 kts | 180° |
| 2026-05-05 21:20 | 42.50257 | -89.07395 | 16307 ft | 388 kts | 179° |
| 2026-05-05 21:20 | 42.47637 | -89.06602 | 16097 ft | 391 kts | 168° |
| 2026-05-05 21:20 | 42.45245 | -89.04797 | 15871 ft | 398 kts | 149° |
| 2026-05-05 21:21 | 42.43359 | -89.02061 | 15671 ft | 401 kts | 129° |
| 2026-05-05 21:21 | 42.42183 | -88.98696 | 15501 ft | 403 kts | 109° |
| 2026-05-05 21:21 | 42.41649 | -88.95003 | 15362 ft | 395 kts | 103° |
| 2026-05-05 21:21 | 42.41175 | -88.91365 | 15171 ft | 393 kts | 103° |
| 2026-05-05 21:22 | 42.40702 | -88.87717 | 14705 ft | 396 kts | 103° |
| 2026-05-05 21:22 | 42.40226 | -88.84009 | 13977 ft | 402 kts | 103° |
| 2026-05-05 21:22 | 42.39749 | -88.80289 | 13278 ft | 402 kts | 102° |
| 2026-05-05 21:22 | 42.39291 | -88.76732 | 12613 ft | 398 kts | 102° |
| 2026-05-05 21:23 | 42.38820 | -88.73075 | 12017 ft | 389 kts | 102° |
| 2026-05-05 21:23 | 42.38360 | -88.69511 | 11428 ft | 381 kts | 102° |
| 2026-05-05 21:23 | 42.37908 | -88.66029 | 11030 ft | 368 kts | 102° |
| 2026-05-05 21:23 | 42.37480 | -88.62737 | 11060 ft | 344 kts | 102° |
| 2026-05-05 21:24 | 42.37069 | -88.59592 | 11056 ft | 338 kts | 103° |
| 2026-05-05 21:24 | 42.36650 | -88.56390 | 11019 ft | 354 kts | 102° |
| 2026-05-05 21:24 | 42.36215 | -88.53073 | 11019 ft | 361 kts | 102° |
| 2026-05-05 21:24 | 42.35778 | -88.49749 | 11022 ft | 365 kts | 102° |
| 2026-05-05 21:25 | 42.35328 | -88.46325 | 11018 ft | 366 kts | 103° |
| 2026-05-05 21:25 | 42.34889 | -88.42988 | 11024 ft | 366 kts | 103° |
| 2026-05-05 21:25 | 42.34309 | -88.39635 | 11007 ft | 361 kts | 117° |
| 2026-05-05 21:25 | 42.33019 | -88.36808 | 11043 ft | 352 kts | 133° |
| 2026-05-05 21:26 | 42.31567 | -88.34134 | 11017 ft | 354 kts | 131° |
| 2026-05-05 21:26 | 42.30116 | -88.31456 | 11018 ft | 352 kts | 134° |
| 2026-05-05 21:26 | 42.28531 | -88.28939 | 11038 ft | 351 kts | 136° |
| 2026-05-05 21:26 | 42.26942 | -88.26425 | 11013 ft | 351 kts | 136° |
| 2026-05-05 21:27 | 42.25364 | -88.23910 | 11008 ft | 351 kts | 136° |
| 2026-05-05 21:27 | 42.23787 | -88.21389 | 11026 ft | 353 kts | 136° |
| 2026-05-05 21:27 | 42.22203 | -88.18853 | 11012 ft | 352 kts | 136° |
| 2026-05-05 21:27 | 42.20624 | -88.16342 | 10998 ft | 350 kts | 138° |
| 2026-05-05 21:28 | 42.18741 | -88.14410 | 10992 ft | 334 kts | 162° |
| 2026-05-05 21:28 | 42.16600 | -88.13268 | 11001 ft | 332 kts | 165° |
| 2026-05-05 21:28 | 42.14495 | -88.12158 | 11016 ft | 319 kts | 166° |
| 2026-05-05 21:28 | 42.12486 | -88.11109 | 11010 ft | 299 kts | 166° |
| 2026-05-05 21:29 | 42.10591 | -88.10134 | 10961 ft | 286 kts | 167° |
| 2026-05-05 21:29 | 42.08741 | -88.09189 | 10694 ft | 283 kts | 167° |
| 2026-05-05 21:29 | 42.06904 | -88.08247 | 10410 ft | 281 kts | 167° |
| 2026-05-05 21:29 | 42.05078 | -88.07318 | 10066 ft | 281 kts | 167° |
| 2026-05-05 21:30 | 42.03260 | -88.06391 | 9779 ft | 278 kts | 167° |
| 2026-05-05 21:30 | 42.01449 | -88.05466 | 9448 ft | 278 kts | 166° |
| 2026-05-05 21:30 | 41.99646 | -88.04548 | 9094 ft | 276 kts | 166° |
| 2026-05-05 21:30 | 41.97854 | -88.03636 | 9002 ft | 276 kts | 166° |
| 2026-05-05 21:31 | 41.96059 | -88.02722 | 8922 ft | 274 kts | 166° |
| 2026-05-05 21:31 | 41.94268 | -88.01810 | 8548 ft | 276 kts | 165° |
| 2026-05-05 21:31 | 41.92522 | -88.00923 | 8428 ft | 267 kts | 165° |
| 2026-05-05 21:31 | 41.90802 | -88.00017 | 8146 ft | 267 kts | 159° |
| 2026-05-05 21:32 | 41.89364 | -87.98445 | 7809 ft | 275 kts | 129° |
| 2026-05-05 21:32 | 41.88589 | -87.96239 | 7484 ft | 279 kts | 102° |
| 2026-05-05 21:32 | 41.88464 | -87.93652 | 7184 ft | 278 kts | 90° |
| 2026-05-05 21:32 | 41.88455 | -87.91092 | 7051 ft | 271 kts | 90° |
| 2026-05-05 21:33 | 41.88448 | -87.88669 | 7109 ft | 266 kts | 89° |
| 2026-05-05 21:33 | 41.88444 | -87.86185 | 7041 ft | 266 kts | 89° |
| 2026-05-05 21:33 | 41.88440 | -87.83708 | 6985 ft | 265 kts | 89° |
| 2026-05-05 21:33 | 41.88435 | -87.81235 | 7003 ft | 265 kts | 89° |
| 2026-05-05 21:34 | 41.88433 | -87.78764 | 7004 ft | 265 kts | 89° |
| 2026-05-05 21:34 | 41.88431 | -87.76297 | 6999 ft | 262 kts | 89° |
| 2026-05-05 21:34 | 41.88428 | -87.73865 | 6597 ft | 261 kts | 89° |
| 2026-05-05 21:34 | 41.88425 | -87.71455 | 6311 ft | 254 kts | 88° |
| 2026-05-05 21:35 | 41.88421 | -87.69125 | 6030 ft | 247 kts | 88° |
| 2026-05-05 21:35 | 41.88417 | -87.66815 | 5615 ft | 247 kts | 88° |
| 2026-05-05 21:35 | 41.88412 | -87.64741 | 5316 ft | 242 kts | 89° |
| 2026-05-05 21:35 | 41.88408 | -87.62496 | 5050 ft | 239 kts | 89° |
| 2026-05-05 21:36 | 41.88402 | -87.60272 | 4988 ft | 239 kts | 89° |
| 2026-05-05 21:36 | 41.88397 | -87.58048 | 4986 ft | 238 kts | 89° |
| 2026-05-05 21:36 | 41.88391 | -87.55816 | 5000 ft | 239 kts | 89° |
| 2026-05-05 21:36 | 41.88444 | -87.53587 | 4986 ft | 238 kts | 78° |
| 2026-05-05 21:37 | 41.89041 | -87.51556 | 4984 ft | 233 kts | 52° |
| 2026-05-05 21:37 | 41.90182 | -87.50077 | 5001 ft | 228 kts | 27° |
| 2026-05-05 21:37 | 41.91647 | -87.49392 | 5007 ft | 222 kts | 3° |
| 2026-05-05 21:37 | 41.93175 | -87.49313 | 5018 ft | 220 kts | 354° |
| 2026-05-05 21:38 | 41.94629 | -87.49804 | 4984 ft | 213 kts | 329° |
| 2026-05-05 21:38 | 41.95721 | -87.51090 | 4997 ft | 209 kts | 302° |
| 2026-05-05 21:38 | 41.96216 | -87.52881 | 5021 ft | 209 kts | 280° |
| 2026-05-05 21:38 | 41.96389 | -87.54824 | 5027 ft | 209 kts | 275° |
| 2026-05-05 21:39 | 41.96485 | -87.56774 | 5011 ft | 209 kts | 274° |
| 2026-05-05 21:39 | 41.96545 | -87.58723 | 5008 ft | 209 kts | 272° |
| 2026-05-05 21:39 | 41.96583 | -87.60681 | 4812 ft | 209 kts | 271° |
| 2026-05-05 21:39 | 41.96602 | -87.62592 | 4562 ft | 201 kts | 271° |
| 2026-05-05 21:40 | 41.96610 | -87.64400 | 4348 ft | 184 kts | 270° |
| 2026-05-05 21:40 | 41.96616 | -87.66096 | 4106 ft | 177 kts | 270° |
| 2026-05-05 21:40 | 41.96618 | -87.67715 | 3876 ft | 177 kts | 270° |
| 2026-05-05 21:40 | 41.96618 | -87.69363 | 3639 ft | 176 kts | 270° |
| 2026-05-05 21:41 | 41.96610 | -87.70967 | 3394 ft | 163 kts | 270° |
| 2026-05-05 21:41 | 41.96604 | -87.72460 | 3185 ft | 157 kts | 272° |
| 2026-05-05 21:41 | 41.96601 | -87.73891 | 3013 ft | 146 kts | 272° |
| 2026-05-05 21:41 | 41.96598 | -87.75216 | 2819 ft | 139 kts | 272° |
| 2026-05-05 21:42 | 41.96596 | -87.76515 | 2593 ft | 138 kts | 271° |
| 2026-05-05 21:42 | 41.96593 | -87.77795 | 2415 ft | 139 kts | 272° |
| 2026-05-05 21:42 | 41.96593 | -87.78986 | 2220 ft | 136 kts | 272° |
| 2026-05-05 21:42 | 41.96595 | -87.80267 | 2052 ft | 136 kts | 270° |
| 2026-05-05 21:43 | 41.96593 | -87.81541 | 1866 ft | 138 kts | 270° |
| 2026-05-05 21:43 | 41.96589 | -87.82828 | 1658 ft | 140 kts | 272° |
| 2026-05-05 21:43 | 41.96591 | -87.84111 | 1471 ft | 134 kts | 273° |
| 2026-05-05 21:43 | 41.96602 | -87.85342 | 1278 ft | 129 kts | 271° |
| 2026-05-05 21:44 | 41.96591 | -87.86548 | 1087 ft | 129 kts | 270° |
| 2026-05-05 21:44 | 41.96587 | -87.87748 | 926 ft | 129 kts | 270° |
| 2026-05-05 21:44 | 41.96577 | -87.88947 | 744 ft | 124 kts | 272° |
| 2026-05-05 21:44 | 41.96577 | -87.89943 | 671 ft | 100 kts | 270° |
| 2026-05-05 21:45 | 41.96576 | -87.90491 | 672 ft | 53 kts | 270° |
| 2026-05-05 21:45 | 41.96583 | -87.90779 | 671 ft | 24 kts | 268° |
| 2026-05-05 21:45 | 41.96580 | -87.91035 | 672 ft | 29 kts | 270° |
| 2026-05-05 21:45 | 41.96599 | -87.91314 | 670 ft | 27 kts | 284° |